Time,TemperatureF,DewpointF,PressureIn,WindDirection,WindDirectionDegrees,WindSpeedMPH,WindSpeedGustMPH,Humidity,HourlyPrecipIn,Conditions,Clouds,dailyrainin,SolarRadiationWatts/m^2,SoftwareType,DateUTC
2013-01-01 00:00:00,31.1,28.0,29.79,West,262,13.0,24.0,88,0.00,,,0.07,0,weatherlink.com 1.10,2013-01-01 05:00:00,
2013-01-01 00:15:00,31.1,28.0,29.79,WSW,250,19.0,23.0,87,0.00,,,0.07,0,weatherlink.com 1.10,2013-01-01 05:15:00,
2013-01-01 00:30:00,31.3,28.0,29.79,West,263,19.0,24.0,87,0.00,,,0.07,0,weatherlink.com 1.10,2013-01-01 05:30:00,
2013-01-01 00:45:00,31.2,28.0,29.78,West,270,19.0,22.0,87,0.00,,,0.07,0,weatherlink.com 1.10,2013-01-01 05:45:00,
2013-01-01 01:00:00,31.4,28.0,29.77,SW,232,20.0,28.0,86,0.00,,,0.07,0,weatherlink.com 1.10,2013-01-01 06:00:00,
2013-01-01 01:15:00,31.3,28.0,29.78,WSW,247,11.0,25.0,86,0.00,,,0.07,0,weatherlink.com 1.10,2013-01-01 06:15:00,
2013-01-01 01:30:00,31.4,27.0,29.77,West,271,15.0,23.0,85,0.00,,,0.07,0,weatherlink.com 1.10,2013-01-01 06:30:00,
2013-01-01 01:45:00,31.6,28.0,29.78,WSW,254,14.0,24.0,85,0.01,,,0.08,0,weatherlink.com 1.10,2013-01-01 06:45:00,
2013-01-01 02:00:00,31.4,27.0,29.78,WNW,303,7.0,27.0,85,0.01,,,0.08,0,weatherlink.com 1.10,2013-01-01 07:00:00,
2013-01-01 02:15:00,31.2,28.0,29.78,WSW,241,21.0,29.0,87,0.01,,,0.08,0,weatherlink.com 1.10,2013-01-01 07:15:00,
2013-01-01 02:30:00,30.8,28.0,29.80,WNW,299,4.0,19.0,89,0.01,,,0.08,0,weatherlink.com 1.10,2013-01-01 07:30:00,
2013-01-01 02:45:00,30.1,28.0,29.81,WNW,288,6.0,19.0,93,0.00,,,0.08,0,weatherlink.com 1.10,2013-01-01 07:45:00,
2013-01-01 03:00:00,29.8,28.0,29.81,WSW,242,3.0,17.0,93,0.00,,,0.08,0,weatherlink.com 1.10,2013-01-01 08:00:00,
2013-01-01 03:15:00,29.6,28.0,29.82,West,268,5.0,14.0,93,0.00,,,0.08,0,weatherlink.com 1.10,2013-01-01 08:15:00,
2013-01-01 03:30:00,29.1,27.0,29.82,West,269,15.0,21.0,91,0.00,,,0.00,0,weatherlink.com 1.10,2013-01-01 08:30:00,
2013-01-01 03:45:00,28.4,25.0,29.83,WNW,296,8.0,24.0,87,0.00,,,0.00,0,weatherlink.com 1.10,2013-01-01 08:45:00,
2013-01-01 04:00:00,28.0,25.0,29.83,WSW,250,3.0,15.0,87,0.00,,,0.00,0,weatherlink.com 1.10,2013-01-01 09:00:00,
2013-01-01 04:15:00,27.7,24.0,29.84,WNW,288,5.0,15.0,87,0.00,,,0.00,0,weatherlink.com 1.10,2013-01-01 09:15:00,
2013-01-01 04:30:00,27.3,24.0,29.83,WSW,253,7.0,14.0,87,0.00,,,0.00,0,weatherlink.com 1.10,2013-01-01 09:30:00,
2013-01-01 04:45:00,27.1,24.0,29.84,NW,324,1.0,9.0,88,0.00,,,0.00,0,weatherlink.com 1.10,2013-01-01 09:45:00,
2013-01-01 05:00:00,26.8,24.0,29.84,WNW,285,3.0,12.0,90,0.00,,,0.00,0,weatherlink.com 1.10,2013-01-01 10:00:00,
2013-01-01 05:15:00,26.5,24.0,29.84,WSW,254,3.0,11.0,90,0.00,,,0.00,0,weatherlink.com 1.10,2013-01-01 10:15:00,
2013-01-01 05:30:00,26.2,24.0,29.84,West,265,2.0,13.0,90,0.00,,,0.00,0,weatherlink.com 1.10,2013-01-01 10:30:00,
2013-01-01 05:45:00,26.0,24.0,29.85,NW,318,3.0,12.0,91,0.00,,,0.00,0,weatherlink.com 1.10,2013-01-01 10:45:00,
2013-01-01 06:00:00,25.8,24.0,29.85,WSW,252,4.0,5.0,91,0.00,,,0.00,0,weatherlink.com 1.10,2013-01-01 11:00:00,
2013-01-01 06:18:00,25.6,23.0,29.85,North,11,11.0,12.0,91,0.00,,,0.00,0,weatherlink.com 1.10,2013-01-01 11:18:00,
2013-01-01 06:30:00,25.4,23.0,29.86,NW,315,3.0,9.0,90,0.00,,,0.00,0,weatherlink.com 1.10,2013-01-01 11:30:00,
2013-01-01 06:45:00,24.8,22.0,29.87,WNW,288,2.0,8.0,89,0.00,,,0.00,0,weatherlink.com 1.10,2013-01-01 11:45:00,
2013-01-01 07:00:00,24.3,21.0,29.87,NW,314,4.0,11.0,88,0.00,,,0.00,0,weatherlink.com 1.10,2013-01-01 12:00:00,
2013-01-01 07:16:00,23.9,21.0,29.88,NW,308,2.0,6.0,88,0.00,,,0.00,0,weatherlink.com 1.10,2013-01-01 12:16:00,
2013-01-01 07:31:00,23.6,21.0,29.88,NNW,329,4.0,7.0,88,0.00,,,0.00,0,weatherlink.com 1.10,2013-01-01 12:31:00,
2013-01-01 07:46:00,22.9,20.0,29.88,North,5,6.0,10.0,87,0.00,,,0.00,0,weatherlink.com 1.10,2013-01-01 12:46:00,
2013-01-01 08:01:00,22.6,19.0,29.88,NNW,348,3.0,9.0,87,0.00,,,0.00,9,weatherlink.com 1.10,2013-01-01 13:01:00,
2013-01-01 08:16:00,22.4,19.0,29.88,NW,315,2.0,10.0,86,0.00,,,0.00,16,weatherlink.com 1.10,2013-01-01 13:16:00,
2013-01-01 08:46:00,21.9,18.0,29.89,NNW,328,5.0,10.0,85,0.00,,,0.00,33,weatherlink.com 1.10,2013-01-01 13:46:00,
2013-01-01 09:01:00,21.9,18.0,29.89,WSW,249,2.0,8.0,86,0.00,,,0.00,39,weatherlink.com 1.10,2013-01-01 14:01:00,
2013-01-01 09:16:00,22.0,19.0,29.90,WNW,298,3.0,7.0,86,0.00,,,0.00,42,weatherlink.com 1.10,2013-01-01 14:16:00,
2013-01-01 09:31:00,21.8,19.0,29.91,NW,314,3.0,10.0,87,0.00,,,0.00,81,weatherlink.com 1.10,2013-01-01 14:31:00,
2013-01-01 09:46:00,21.4,19.0,29.91,NW,304,2.0,9.0,89,0.00,,,0.00,88,weatherlink.com 1.10,2013-01-01 14:46:00,
2013-01-01 10:01:00,21.3,19.0,29.91,WNW,297,3.0,9.0,90,0.00,,,0.00,100,weatherlink.com 1.10,2013-01-01 15:01:00,
2013-01-01 10:16:00,21.4,19.0,29.91,West,278,0.0,8.0,90,0.00,,,0.00,128,weatherlink.com 1.10,2013-01-01 15:16:00,
2013-01-01 10:31:00,21.5,19.0,29.91,NNW,328,2.0,8.0,90,0.00,,,0.00,104,weatherlink.com 1.10,2013-01-01 15:31:00,
2013-01-01 10:46:00,21.3,19.0,29.91,WNW,294,3.0,7.0,90,0.00,,,0.00,102,weatherlink.com 1.10,2013-01-01 15:46:00,
2013-01-01 11:01:00,21.5,19.0,29.92,WSW,242,3.0,12.0,90,0.00,,,0.00,114,weatherlink.com 1.10,2013-01-01 16:01:00,
2013-01-01 11:16:00,21.3,19.0,29.91,West,276,3.0,13.0,89,0.00,,,0.00,86,weatherlink.com 1.10,2013-01-01 16:16:00,
2013-01-01 11:31:00,21.1,18.0,29.91,SW,232,4.0,11.0,89,0.00,,,0.00,83,weatherlink.com 1.10,2013-01-01 16:31:00,
2013-01-01 11:46:00,21.1,18.0,29.91,NNW,336,3.0,17.0,89,0.00,,,0.00,109,weatherlink.com 1.10,2013-01-01 16:46:00,
2013-01-01 12:01:00,21.0,18.0,29.90,WSW,239,7.0,14.0,87,0.00,,,0.00,141,weatherlink.com 1.10,2013-01-01 17:01:00,
2013-01-01 12:16:00,20.9,18.0,29.90,WNW,287,5.0,12.0,88,0.00,,,0.00,155,weatherlink.com 1.10,2013-01-01 17:16:00,
2013-01-01 12:31:00,21.3,17.0,29.91,WSW,240,7.0,18.0,84,0.00,,,0.00,315,weatherlink.com 1.10,2013-01-01 17:31:00,
2013-01-01 12:46:00,20.8,16.0,29.89,NNW,331,6.0,17.0,80,0.00,,,0.00,461,weatherlink.com 1.10,2013-01-01 17:46:00,
2013-01-01 13:01:00,20.9,15.0,29.89,WNW,285,10.0,14.0,79,0.00,,,0.00,271,weatherlink.com 1.10,2013-01-01 18:01:00,
2013-01-01 13:16:00,20.6,14.0,29.90,West,281,8.0,17.0,76,0.00,,,0.00,113,weatherlink.com 1.10,2013-01-01 18:16:00,
2013-01-01 13:32:00,20.5,13.0,29.90,WSW,244,9.0,16.0,74,0.00,,,0.00,165,weatherlink.com 1.10,2013-01-01 18:32:00,
2013-01-01 13:46:00,20.3,13.0,29.89,West,279,9.0,21.0,74,0.00,,,0.00,116,weatherlink.com 1.10,2013-01-01 18:46:00,
2013-01-01 14:02:00,20.3,13.0,29.88,NW,311,2.0,16.0,74,0.00,,,0.00,132,weatherlink.com 1.10,2013-01-01 19:02:00,
2013-01-01 14:17:00,20.8,13.0,29.88,WNW,301,6.0,17.0,72,0.00,,,0.00,371,weatherlink.com 1.10,2013-01-01 19:17:00,
2013-01-01 14:32:00,20.7,13.0,29.88,West,281,11.0,18.0,71,0.00,,,0.00,306,weatherlink.com 1.10,2013-01-01 19:32:00,
2013-01-01 14:47:00,20.1,12.0,29.89,West,277,4.0,18.0,70,0.00,,,0.00,100,weatherlink.com 1.10,2013-01-01 19:47:00,
2013-01-01 15:02:00,19.8,11.0,29.90,WNW,282,6.0,16.0,69,0.00,,,0.00,47,weatherlink.com 1.10,2013-01-01 20:02:00,
2013-01-01 15:17:00,19.3,11.0,29.91,WNW,299,11.0,18.0,69,0.00,,,0.00,49,weatherlink.com 1.10,2013-01-01 20:17:00,
2013-01-01 15:32:00,19.0,11.0,29.92,West,281,6.0,18.0,70,0.00,,,0.00,47,weatherlink.com 1.10,2013-01-01 20:32:00,
2013-01-01 15:47:00,18.6,11.0,29.92,West,273,7.0,17.0,71,0.00,,,0.00,23,weatherlink.com 1.10,2013-01-01 20:47:00,
2013-01-01 16:02:00,18.0,10.0,29.92,WNW,291,6.0,14.0,71,0.00,,,0.00,11,weatherlink.com 1.10,2013-01-01 21:02:00,
2013-01-01 16:17:00,17.7,9.0,29.92,West,273,3.0,14.0,70,0.00,,,0.00,14,weatherlink.com 1.10,2013-01-01 21:17:00,
2013-01-01 16:32:00,17.1,9.0,29.94,West,261,6.0,17.0,71,0.00,,,0.00,0,weatherlink.com 1.10,2013-01-01 21:32:00,
2013-01-01 16:47:00,16.1,9.0,29.94,West,276,8.0,11.0,72,0.00,,,0.00,0,weatherlink.com 1.10,2013-01-01 21:47:00,
2013-01-01 17:02:00,14.6,7.0,29.94,West,273,2.0,9.0,73,0.00,,,0.00,0,weatherlink.com 1.10,2013-01-01 22:02:00,
2013-01-01 17:32:00,14.3,7.0,29.96,West,273,0.0,7.0,74,0.00,,,0.00,0,weatherlink.com 1.10,2013-01-01 22:32:00,
2013-01-01 17:47:00,13.2,7.0,29.96,WSW,252,3.0,7.0,77,0.00,,,0.00,0,weatherlink.com 1.10,2013-01-01 22:47:00,
2013-01-01 18:02:00,12.9,7.0,29.97,West,265,6.0,9.0,77,0.00,,,0.00,0,weatherlink.com 1.10,2013-01-01 23:02:00,
2013-01-01 18:17:00,13.2,8.0,29.98,West,263,6.0,9.0,78,0.00,,,0.00,0,weatherlink.com 1.10,2013-01-01 23:17:00,
2013-01-01 18:32:00,13.0,7.0,29.98,West,270,7.0,11.0,78,0.00,,,0.00,0,weatherlink.com 1.10,2013-01-01 23:32:00,
2013-01-01 18:47:00,12.7,8.0,29.98,West,270,7.0,10.0,80,0.00,,,0.00,0,weatherlink.com 1.10,2013-01-01 23:47:00,
2013-01-01 19:02:00,13.5,8.0,29.98,WSW,248,6.0,8.0,80,0.00,,,0.00,0,weatherlink.com 1.10,2013-01-02 00:02:00,
2013-01-01 19:17:00,13.2,8.0,29.98,WSW,253,7.0,9.0,80,0.00,,,0.00,0,weatherlink.com 1.10,2013-01-02 00:17:00,
2013-01-01 19:32:00,12.9,8.0,29.98,WSW,252,5.0,12.0,81,0.00,,,0.00,0,weatherlink.com 1.10,2013-01-02 00:32:00,
2013-01-01 19:47:00,13.4,9.0,29.97,West,263,7.0,10.0,82,0.00,,,0.00,0,weatherlink.com 1.10,2013-01-02 00:47:00,
2013-01-01 20:02:00,14.1,9.0,29.96,West,266,9.0,13.0,81,0.00,,,0.00,0,weatherlink.com 1.10,2013-01-02 01:02:00,
2013-01-01 20:17:00,14.6,10.0,29.96,WSW,240,5.0,13.0,80,0.00,,,0.00,0,weatherlink.com 1.10,2013-01-02 01:17:00,
2013-01-01 20:32:00,14.1,9.0,29.96,West,260,8.0,13.0,80,0.00,,,0.00,0,weatherlink.com 1.10,2013-01-02 01:32:00,
2013-01-01 20:47:00,14.5,10.0,29.96,West,266,10.0,15.0,81,0.00,,,0.00,0,weatherlink.com 1.10,2013-01-02 01:47:00,
2013-01-01 21:02:00,14.2,9.0,29.96,West,281,5.0,13.0,80,0.00,,,0.00,0,weatherlink.com 1.10,2013-01-02 02:02:00,
2013-01-01 21:17:00,14.2,9.0,29.96,WSW,256,9.0,13.0,81,0.00,,,0.00,0,weatherlink.com 1.10,2013-01-02 02:17:00,
2013-01-01 21:33:00,14.3,10.0,29.96,West,265,8.0,15.0,81,0.00,,,0.00,0,weatherlink.com 1.10,2013-01-02 02:33:00,
2013-01-01 21:48:00,14.5,9.0,29.97,West,262,10.0,14.0,80,0.00,,,0.00,0,weatherlink.com 1.10,2013-01-02 02:48:00,
2013-01-01 22:03:00,14.4,9.0,29.98,WSW,252,10.0,15.0,80,0.00,,,0.00,0,weatherlink.com 1.10,2013-01-02 03:03:00,
2013-01-01 22:18:00,14.1,9.0,29.98,WSW,252,8.0,12.0,81,0.00,,,0.00,0,weatherlink.com 1.10,2013-01-02 03:18:00,
2013-01-01 22:33:00,13.9,9.0,29.97,WSW,254,7.0,9.0,81,0.00,,,0.00,0,weatherlink.com 1.10,2013-01-02 03:33:00,
2013-01-01 22:48:00,13.6,9.0,29.98,WSW,258,3.0,10.0,81,0.00,,,0.00,0,weatherlink.com 1.10,2013-01-02 03:48:00,
2013-01-01 23:03:00,13.4,9.0,29.99,WSW,257,6.0,10.0,83,0.00,,,0.00,0,weatherlink.com 1.10,2013-01-02 04:03:00,
2013-01-01 23:18:00,13.5,9.0,29.98,West,259,10.0,11.0,83,0.00,,,0.00,0,weatherlink.com 1.10,2013-01-02 04:18:00,
2013-01-01 23:33:00,13.1,9.0,29.98,WSW,244,4.0,12.0,84,0.00,,,0.00,0,weatherlink.com 1.10,2013-01-02 04:33:00,
2013-01-01 23:48:00,13.7,10.0,29.98,West,274,6.0,11.0,85,0.00,,,0.00,0,weatherlink.com 1.10,2013-01-02 04:48:00,